createdAt,value
2022-08-02T00:02:10.267Z,36.43
2022-08-02T00:07:12.530Z,36.37
2022-08-02T00:12:14.709Z,36.10
2022-08-02T00:17:16.870Z,36.13
2022-08-02T00:22:18.789Z,36.09
2022-08-02T00:27:20.771Z,36.02
2022-08-02T00:32:23.683Z,35.98
2022-08-02T00:37:25.958Z,35.88
2022-08-02T00:42:28.342Z,35.85
2022-08-02T00:47:30.475Z,35.92
2022-08-02T00:52:32.578Z,35.83
2022-08-02T00:57:34.603Z,35.84
2022-08-02T01:02:36.705Z,35.56
2022-08-02T01:07:38.583Z,35.79
2022-08-02T01:12:40.510Z,35.85
2022-08-02T01:17:54.726Z,35.79
2022-08-02T01:23:18.061Z,35.57
2022-08-02T01:28:23.024Z,35.62
2022-08-02T01:33:30.629Z,35.71
2022-08-02T01:38:40.496Z,35.60
2022-08-02T01:43:44.071Z,35.61
2022-08-02T01:48:48.054Z,35.92
2022-08-02T01:53:51.797Z,35.78
2022-08-02T01:58:55.322Z,35.90
2022-08-02T02:03:58.021Z,35.75
2022-08-02T02:09:00.895Z,35.96
2022-08-02T02:14:04.375Z,36.19
2022-08-02T02:19:07.916Z,36.15
2022-08-02T02:24:11.839Z,35.92
2022-08-02T02:29:15.156Z,36.01
2022-08-02T02:34:33.995Z,36.38
2022-08-02T02:39:37.990Z,36.26
2022-08-02T02:44:40.909Z,36.27
2022-08-02T02:49:45.399Z,36.27
2022-08-02T02:54:50.981Z,36.04
2022-08-02T02:59:54.528Z,36.18
2022-08-02T03:04:58.142Z,36.24
2022-08-02T03:10:01.106Z,36.20
2022-08-02T03:15:07.767Z,36.33
2022-08-02T03:20:12.208Z,35.96
2022-08-02T03:25:15.198Z,36.08
2022-08-02T03:30:17.161Z,36.09
2022-08-02T03:35:24.193Z,36.22
2022-08-02T03:40:28.647Z,36.30
2022-08-02T03:45:30.994Z,36.32
2022-08-02T03:50:33.959Z,36.38
2022-08-02T03:55:36.274Z,36.29
2022-08-02T04:00:38.627Z,36.11
2022-08-02T04:06:03.585Z,36.19
2022-08-02T04:11:21.151Z,36.17
2022-08-02T04:16:29.284Z,36.24
2022-08-02T04:21:48.970Z,36.16
2022-08-02T04:27:06.503Z,36.19
2022-08-02T04:32:09.939Z,36.17
2022-08-02T04:37:13.955Z,36.03
2022-08-02T04:42:23.652Z,36.41
2022-08-02T04:47:54.472Z,36.47
2022-08-02T04:52:47.783Z,36.75
2022-08-02T04:57:55.712Z,36.47
2022-08-02T05:02:58.150Z,36.28
2022-08-02T05:08:00.833Z,36.46
2022-08-02T05:13:04.914Z,36.30
2022-08-02T05:18:06.882Z,36.38
2022-08-02T05:23:08.897Z,36.32
2022-08-02T05:28:11.704Z,36.64
2022-08-02T05:33:13.825Z,36.70
2022-08-02T05:38:15.774Z,36.91
2022-08-02T05:43:18.039Z,36.81
2022-08-02T05:48:26.516Z,36.97
2022-08-02T05:53:41.752Z,37.14
2022-08-02T05:59:12.359Z,37.34
2022-08-02T06:04:26.059Z,37.16
2022-08-02T06:09:28.626Z,37.21
2022-08-02T06:14:34.292Z,37.10
2022-08-02T06:19:51.386Z,37.48
2022-08-02T06:24:55.276Z,37.56
2022-08-02T06:29:58.161Z,37.61
2022-08-02T06:35:00.370Z,37.54
2022-08-02T06:40:15.229Z,37.54
2022-08-02T06:45:17.332Z,37.58
2022-08-02T06:50:19.300Z,37.89
2022-08-02T06:55:21.186Z,37.92
2022-08-02T07:00:23.604Z,37.96
2022-08-02T07:05:25.679Z,38.29
2022-08-02T07:10:28.001Z,38.42
2022-08-02T07:15:29.876Z,39.02
2022-08-02T07:20:32.211Z,39.07
2022-08-02T07:26:02.375Z,39.31
2022-08-02T07:30:56.053Z,40.34
2022-08-02T07:35:58.871Z,40.88
2022-08-02T07:41:03.435Z,40.25
2022-08-02T07:46:05.842Z,40.58
2022-08-02T07:51:07.515Z,39.92
2022-08-02T07:56:09.282Z,40.77
2022-08-02T08:01:11.082Z,41.16
2022-08-02T08:06:12.927Z,40.75
2022-08-02T08:11:14.795Z,41.18
2022-08-02T08:16:16.938Z,40.58
2022-08-02T08:21:18.658Z,40.27
2022-08-02T08:26:20.423Z,40.34
2022-08-02T08:31:22.169Z,40.73
2022-08-02T08:36:24.034Z,40.67
2022-08-02T08:41:25.964Z,41.18
2022-08-02T08:46:34.958Z,41.03
2022-08-02T08:51:43.928Z,41.19
2022-08-02T08:56:49.661Z,41.21
2022-08-02T09:01:52.934Z,41.37
2022-08-02T09:06:55.935Z,41.16
2022-08-02T09:12:14.733Z,41.50
2022-08-02T09:17:17.084Z,41.73
2022-08-02T09:22:19.065Z,41.99
2022-08-02T09:27:22.932Z,43.53
2022-08-02T09:32:24.843Z,44.20
2022-08-02T09:37:31.448Z,41.80
2022-08-02T09:42:33.810Z,41.68
2022-08-02T09:47:37.105Z,41.59
2022-08-02T09:52:43.705Z,41.70
2022-08-02T09:57:50.301Z,41.31
2022-08-02T10:03:12.340Z,41.42
2022-08-02T10:08:23.902Z,41.49
2022-08-02T10:13:29.726Z,41.40
2022-08-02T10:18:40.794Z,41.04
2022-08-02T10:23:46.016Z,41.48
2022-08-02T10:28:50.062Z,40.92
2022-08-02T10:33:54.409Z,41.38
2022-08-02T10:38:58.874Z,41.01
2022-08-02T10:44:01.323Z,40.98
2022-08-02T10:54:43.923Z,40.77
2022-08-02T10:59:46.260Z,40.94
2022-08-02T11:04:47.964Z,40.87
2022-08-02T11:09:51.343Z,40.79
2022-08-02T11:15:00.166Z,41.04
2022-08-02T11:20:14.836Z,40.84
2022-08-02T11:25:22.920Z,41.33
2022-08-02T11:30:26.778Z,41.16
2022-08-02T11:35:40.283Z,41.67
2022-08-02T11:40:43.361Z,41.92
2022-08-02T11:45:45.518Z,41.47
2022-08-02T11:50:47.378Z,41.11
2022-08-02T11:55:49.460Z,41.41
2022-08-02T12:00:53.557Z,42.05
2022-08-02T12:06:04.579Z,41.96
2022-08-02T12:11:08.094Z,41.76
2022-08-02T12:16:30.883Z,41.56
2022-08-02T12:21:32.707Z,40.94
2022-08-02T12:26:45.435Z,41.06
2022-08-02T12:31:57.557Z,41.08
2022-08-02T12:37:06.181Z,40.33
2022-08-02T12:42:10.560Z,40.18
2022-08-02T12:47:12.494Z,39.86
2022-08-02T12:52:21.973Z,39.84
2022-08-02T12:57:25.487Z,39.48
2022-08-02T13:02:27.920Z,39.51
2022-08-02T13:07:30.115Z,39.28
2022-08-02T13:12:32.168Z,38.86
2022-08-02T13:17:34.206Z,39.26
2022-08-02T13:22:38.218Z,38.97
2022-08-02T13:27:53.930Z,38.40
2022-08-02T13:33:00.815Z,38.27
2022-08-02T13:38:04.603Z,38.22
2022-08-02T13:43:06.517Z,38.20
2022-08-02T13:48:16.983Z,38.02
2022-08-02T13:53:20.861Z,37.66
2022-08-02T13:58:22.692Z,37.82
2022-08-02T14:03:24.683Z,37.78
2022-08-02T14:08:46.851Z,37.71
2022-08-02T14:13:48.760Z,37.60
2022-08-02T14:18:50.672Z,37.47
2022-08-02T14:23:52.611Z,37.83
2022-08-02T14:28:54.610Z,36.85
2022-08-02T14:33:56.585Z,36.75
2022-08-02T14:38:58.321Z,36.77
2022-08-02T14:44:07.289Z,37.10
2022-08-02T14:49:10.848Z,37.27
2022-08-02T14:54:16.348Z,37.08
2022-08-02T14:59:20.402Z,35.63
2022-08-02T15:04:22.348Z,34.93
2022-08-02T15:09:24.486Z,35.96
2022-08-02T15:14:27.462Z,35.63
2022-08-02T15:19:56.751Z,36.78
2022-08-02T15:24:52.705Z,36.09
2022-08-02T15:30:00.573Z,36.73
2022-08-02T15:35:03.296Z,37.12
2022-08-02T15:40:05.461Z,37.26
2022-08-02T15:45:07.920Z,38.29
2022-08-02T15:50:16.644Z,38.31
2022-08-02T15:55:18.672Z,38.53
2022-08-02T16:00:20.801Z,38.91
2022-08-02T16:05:23.018Z,38.93
2022-08-02T16:10:25.367Z,38.54
2022-08-02T16:15:27.183Z,38.51
2022-08-02T16:20:29.095Z,38.48
2022-08-02T16:25:30.843Z,38.39
2022-08-02T16:30:32.600Z,38.61
2022-08-02T16:35:35.216Z,38.06
2022-08-02T16:40:37.142Z,37.27
2022-08-02T16:45:39.045Z,37.30
2022-08-02T16:50:40.911Z,37.53
2022-08-02T16:55:51.958Z,37.51
2022-08-02T17:00:55.260Z,37.53
2022-08-02T17:05:57.330Z,37.98
2022-08-02T17:11:03.654Z,37.90
2022-08-02T17:16:25.819Z,37.96
2022-08-02T17:21:28.550Z,37.56
2022-08-02T17:26:30.589Z,37.89
2022-08-02T17:31:37.261Z,37.94
2022-08-02T17:36:49.570Z,37.96
2022-08-02T17:41:52.338Z,37.90
2022-08-02T17:46:54.311Z,37.67
2022-08-02T17:52:49.023Z,38.00
2022-08-02T17:57:19.482Z,37.97
2022-08-02T18:02:21.294Z,37.87
2022-08-02T18:07:25.189Z,38.09
2022-08-02T18:12:27.780Z,38.45
2022-08-02T18:17:29.712Z,38.08
2022-08-02T18:22:31.757Z,38.09
2022-08-02T18:27:33.761Z,37.88
2022-08-02T18:33:59.675Z,38.00
2022-08-02T18:38:03.507Z,38.04
2022-08-02T18:43:07.112Z,37.94
2022-08-02T18:48:09.662Z,38.00
2022-08-02T18:53:11.444Z,37.80
2022-08-02T18:58:20.215Z,38.51
2022-08-02T19:03:22.788Z,38.99
2022-08-02T19:08:26.207Z,38.84
2022-08-02T19:13:28.615Z,38.74
2022-08-02T19:18:30.504Z,38.65
2022-08-02T19:23:34.470Z,38.79
2022-08-02T19:28:36.374Z,39.00
2022-08-02T19:34:05.804Z,38.84
2022-08-02T19:38:59.950Z,39.28
2022-08-02T19:44:25.303Z,38.85
2022-08-02T19:49:39.690Z,39.03
2022-08-02T19:54:56.070Z,39.13
2022-08-02T19:59:59.065Z,39.09
2022-08-02T20:05:00.970Z,39.16
2022-08-02T20:10:10.955Z,39.15
2022-08-02T20:15:14.832Z,39.20
2022-08-02T20:20:18.067Z,39.28
2022-08-02T20:25:20.624Z,39.46
2022-08-02T20:30:25.523Z,39.70
2022-08-02T20:35:27.986Z,39.67
2022-08-02T20:40:30.076Z,40.18
2022-08-02T20:45:33.581Z,40.10
2022-08-02T20:50:54.360Z,40.27
2022-08-02T20:55:56.495Z,40.14
2022-08-02T21:01:00.907Z,40.18
2022-08-02T21:06:02.929Z,40.25
2022-08-02T21:16:28.618Z,39.93
2022-08-02T21:21:31.036Z,39.90
2022-08-02T21:26:33.102Z,39.97
2022-08-02T21:31:35.850Z,39.60
2022-08-02T21:36:38.532Z,39.62
2022-08-02T21:41:46.168Z,39.96
2022-08-02T21:46:51.735Z,40.02
2022-08-02T21:51:54.740Z,40.00
2022-08-02T21:56:56.790Z,39.82
2022-08-02T22:02:00.837Z,39.90
2022-08-02T22:07:03.073Z,40.09
2022-08-02T22:12:10.156Z,40.16
2022-08-02T22:17:15.235Z,40.22
2022-08-02T22:22:17.817Z,40.12
2022-08-02T22:27:20.304Z,40.22
2022-08-02T22:32:40.651Z,39.99
2022-08-02T22:38:15.413Z,40.21
2022-08-02T22:43:05.404Z,39.91
2022-08-02T22:48:07.482Z,40.28
2022-08-02T22:53:09.313Z,39.96
2022-08-02T22:58:12.120Z,40.04
2022-08-02T22:59:02.070Z,39.88
2022-08-02T23:03:15.176Z,40.00
2022-08-02T23:08:17.527Z,39.82
2022-08-02T23:13:19.634Z,39.88
2022-08-02T23:18:40.434Z,39.83
2022-08-02T23:23:42.254Z,39.87
2022-08-02T23:28:44.243Z,39.70
2022-08-02T23:34:03.649Z,39.88
2022-08-02T23:39:06.813Z,39.60
2022-08-02T23:44:13.909Z,39.60
2022-08-02T23:49:17.037Z,39.63
2022-08-02T23:54:20.244Z,39.76
2022-08-02T23:59:22.316Z,39.86
